Pregled zadnjih 96 podatkov za postajo Borovnica (27469)

Čas Temperatura 2 m (°C)  Relativna vlaga 2 m (% RH)  Padavine (mm)  Omočenost lista (U)  Hitrost vetra (km/h) 
3.6.2020 18:00:00 23,66 45,27 0 0 14,75
3.6.2020 17:30:00 24 42,59 0 0 15,92
3.6.2020 17:00:00 24,86 40,88 0 0 10,65
3.6.2020 16:30:00 25,08 40,56 0 0 12,8
3.6.2020 16:00:00 25,13 41,27 0 0 13,24
3.6.2020 15:30:00 24,76 43,13 0 0 9,62
3.6.2020 15:00:00 24,57 44,47 0 0 13,43
3.6.2020 14:30:00 24,54 47,06 0 0 12,11
3.6.2020 14:00:00 24,86 46,28 0 0 10,55
3.6.2020 13:30:00 24,96 46,5 0 0 9,62
3.6.2020 13:00:00 23,96 47,5 0 0 7,23
3.6.2020 12:30:00 23,76 48,62 0 0 9,28
3.6.2020 12:00:00 23,54 49,87 0 0 9,23
3.6.2020 11:30:00 23,13 50,65 0 0 10,35
3.6.2020 11:00:00 23,1 52,21 0 0 8,6
3.6.2020 10:30:00 22,52 57,39 0 0 4,93
3.6.2020 10:00:00 19,63 69,28 0 0 3,86
3.6.2020 9:30:00 16,7 77,97 0 0 2,88
3.6.2020 9:00:00 14,04 86,81 0 10 2,25
3.6.2020 8:30:00 12,77 91,87 0 10 2,64
3.6.2020 8:00:00 12,01 97,29 0 10 1,61
3.6.2020 7:30:00 10,84 99,85 0 10 2,05
3.6.2020 7:00:00 9,74 99,88 0 10 1,47
3.6.2020 6:30:00 9,16 99,8 0 10 2,34
3.6.2020 6:00:00 7,55 99,49 0 10 2,64
3.6.2020 5:30:00 7,11 99,19 0 10 2,25
3.6.2020 5:00:00 7,89 99,17 0 10 1,42
3.6.2020 4:30:00 8,16 98,97 0 10 2,39
3.6.2020 4:00:00 8,77 98,61 0 10 2,34
3.6.2020 3:30:00 9,28 98,53 0 10 1,9
3.6.2020 3:00:00 9,57 98,14 0 10 2,05
3.6.2020 2:30:00 10,21 97,95 0 10 1,86
3.6.2020 2:00:00 10,43 97,68 0 10 1,66
3.6.2020 1:30:00 10,09 96,87 0 10 2
3.6.2020 1:00:00 10,67 95,8 0 10 2,44
3.6.2020 0:30:00 11,14 97,05 0 10 2,39
3.6.2020 11,16 97,44 0 10 3,57
2.6.2020 23:30:00 10,96 96,9 0 7 2,39
2.6.2020 23:00:00 10,94 95,73 0 3 2,15
2.6.2020 22:30:00 11,94 94,07 0 2 3,32
2.6.2020 22:00:00 12,77 94,26 0 1 2,98
2.6.2020 21:30:00 13,33 93,24 0 0 2,74
2.6.2020 21:00:00 13,97 91,21 0 0 3,42
2.6.2020 20:30:00 15,12 86,64 0 0 2,3
2.6.2020 20:00:00 16,97 79,93 0 0 2,2
2.6.2020 19:30:00 19,71 65,84 0 0 3,22
2.6.2020 19:00:00 20,24 60,78 0 0 5,67
2.6.2020 18:30:00 19,61 63,52 0,2 6,54
2.6.2020 18:00:00 18,78 68,08 0 0 10,26
2.6.2020 17:30:00 17,46 75,46 0 0 5,71
2.6.2020 17:00:00 18,05 72,67 3,6 10 10,06
2.6.2020 16:30:00 24,84 46,59 0 0 10,26
2.6.2020 16:00:00 24,81 45,59 0 0 12,75
2.6.2020 15:30:00 25,42 43 0 0 7,86
2.6.2020 15:00:00 25,01 40,66 0 0 4,84
2.6.2020 14:30:00 24,32 41,81 0 0 4,3
2.6.2020 14:00:00 24,76 39,58 0 0 3,37
2.6.2020 13:30:00 24,2 41,61 0 0 3,52
2.6.2020 13:00:00 23,88 41,17 0 0 4,1
2.6.2020 12:30:00 23,37 41,81 0 0 3,57
2.6.2020 12:00:00 22,2 48,28 0 0 3,52
2.6.2020 11:30:00 21,1 54,7 0 0 3,91
2.6.2020 11:00:00 20,07 61,93 0 0 4,25
2.6.2020 10:30:00 19,15 65,59 0 0 2,88
2.6.2020 10:00:00 18,19 65,93 0 0 3,76
2.6.2020 9:30:00 17,24 68,82 0 0 2,2
2.6.2020 9:00:00 15,85 70,92 0 0 2,83
2.6.2020 8:30:00 14,43 77,51 0 0 2,2
2.6.2020 8:00:00 13,89 79,73 0 2 1,81
2.6.2020 7:30:00 12,5 88,42 0 10 2,34
2.6.2020 7:00:00 9,4 99,15 0 10 1,76
2.6.2020 6:30:00 6,91 98,97 0 10 1,47
2.6.2020 6:00:00 6,11 98,49 0 10 2,05
2.6.2020 5:30:00 6,52 98,22 0 10 1,95
2.6.2020 5:00:00 7,06 98,14 0 10 2,05
2.6.2020 4:30:00 7,08 97,7 0 10 2,34
2.6.2020 4:00:00 7,96 97,66 0 10 3,32
2.6.2020 3:30:00 8,13 97,29 0 9 2,39
2.6.2020 3:00:00 8,33 96,9 0 7 1,9
2.6.2020 2:30:00 8,38 95,95 0 4 2,15
2.6.2020 2:00:00 9,13 94,99 0 2 2,05
2.6.2020 1:30:00 9,72 93,46 0 1 1,76
2.6.2020 1:00:00 10,72 92,04 0 0 1,03
2.6.2020 0:30:00 10,87 90,77 0 0 1,37
2.6.2020 11,58 86,67 0 0 1,66
1.6.2020 23:30:00 11,92 86,35 0 0 1,61
1.6.2020 23:00:00 13,33 80,44 0 0 2,69
1.6.2020 22:30:00 14,46 75,63 0 0 1,81
1.6.2020 22:00:00 15,34 70,13 0 0 3,13
1.6.2020 21:30:00 15,29 71,45 0 0 3,32
1.6.2020 21:00:00 15,36 72,01 0 0 2,34
1.6.2020 20:30:00 16,41 70,6 0 0 2,34
1.6.2020 20:00:00 18,8 57,05 0 0 1,37
1.6.2020 19:30:00 20,76 49,23 0 0 2,59
1.6.2020 19:00:00 22,17 43,76 0 0 4,54
1.6.2020 18:30:00 22,52 42,47 0 0 6,45